You are listening to:
YBTL Tower - Townsville, Queensland, Australia

YBTL 060930Z 25005KT CAVOK 16/13 Q1016

If stream doesn't start automatically press the play button
If stream stops then reload player then press play